sensor_id;sensor_type;location;lat;lon;timestamp;P1;durP1;ratioP1;P2;durP2;ratioP2
4174;SDS011;2101;48.290;14.382;2022-07-29T00:01:15;16.07;;;2.17;;
4174;SDS011;2101;48.290;14.382;2022-07-29T00:03:42;17.90;;;2.50;;
4174;SDS011;2101;48.290;14.382;2022-07-29T00:06:08;15.97;;;1.97;;
4174;SDS011;2101;48.290;14.382;2022-07-29T00:08:34;17.10;;;2.57;;
4174;SDS011;2101;48.290;14.382;2022-07-29T00:11:01;17.13;;;2.60;;
4174;SDS011;2101;48.290;14.382;2022-07-29T00:13:28;17.40;;;2.73;;
4174;SDS011;2101;48.290;14.382;2022-07-29T00:15:55;16.67;;;1.87;;
4174;SDS011;2101;48.290;14.382;2022-07-29T00:18:21;14.60;;;1.80;;
4174;SDS011;2101;48.290;14.382;2022-07-29T00:20:47;15.70;;;2.27;;
4174;SDS011;2101;48.290;14.382;2022-07-29T00:23:16;16.40;;;1.97;;
4174;SDS011;2101;48.290;14.382;2022-07-29T00:25:43;16.30;;;2.17;;
4174;SDS011;2101;48.290;14.382;2022-07-29T00:28:09;14.70;;;2.07;;
4174;SDS011;2101;48.290;14.382;2022-07-29T00:30:36;16.17;;;2.23;;
4174;SDS011;2101;48.290;14.382;2022-07-29T00:33:02;16.70;;;2.00;;
4174;SDS011;2101;48.290;14.382;2022-07-29T00:35:29;18.13;;;2.70;;
4174;SDS011;2101;48.290;14.382;2022-07-29T00:38:14;16.20;;;2.07;;
4174;SDS011;2101;48.290;14.382;2022-07-29T00:40:41;17.13;;;2.60;;
4174;SDS011;2101;48.290;14.382;2022-07-29T00:43:08;16.57;;;2.50;;
4174;SDS011;2101;48.290;14.382;2022-07-29T00:45:34;27.93;;;2.80;;
4174;SDS011;2101;48.290;14.382;2022-07-29T00:48:01;18.13;;;2.30;;
4174;SDS011;2101;48.290;14.382;2022-07-29T00:50:31;15.57;;;2.07;;
4174;SDS011;2101;48.290;14.382;2022-07-29T00:52:59;15.60;;;2.00;;
4174;SDS011;2101;48.290;14.382;2022-07-29T00:55:26;18.53;;;2.60;;
4174;SDS011;2101;48.290;14.382;2022-07-29T00:57:52;18.00;;;2.30;;
4174;SDS011;2101;48.290;14.382;2022-07-29T01:00:21;16.47;;;2.57;;
4174;SDS011;2101;48.290;14.382;2022-07-29T01:02:48;16.00;;;2.20;;
4174;SDS011;2101;48.290;14.382;2022-07-29T01:05:18;15.93;;;2.13;;
4174;SDS011;2101;48.290;14.382;2022-07-29T01:07:45;17.60;;;1.90;;
4174;SDS011;2101;48.290;14.382;2022-07-29T01:10:12;17.70;;;2.13;;
4174;SDS011;2101;48.290;14.382;2022-07-29T01:12:39;18.43;;;2.63;;
4174;SDS011;2101;48.290;14.382;2022-07-29T01:15:06;15.20;;;1.87;;
4174;SDS011;2101;48.290;14.382;2022-07-29T01:17:38;16.30;;;2.40;;
4174;SDS011;2101;48.290;14.382;2022-07-29T01:25:25;15.60;;;2.37;;
4174;SDS011;2101;48.290;14.382;2022-07-29T01:28:17;17.97;;;2.50;;
4174;SDS011;2101;48.290;14.382;2022-07-29T01:30:47;15.70;;;2.13;;
4174;SDS011;2101;48.290;14.382;2022-07-29T01:33:15;16.80;;;2.50;;
4174;SDS011;2101;48.290;14.382;2022-07-29T01:36:07;17.77;;;2.83;;
4174;SDS011;2101;48.290;14.382;2022-07-29T01:38:37;15.97;;;2.50;;
4174;SDS011;2101;48.290;14.382;2022-07-29T01:41:09;18.63;;;2.90;;
4174;SDS011;2101;48.290;14.382;2022-07-29T01:43:42;20.80;;;2.47;;
4174;SDS011;2101;48.290;14.382;2022-07-29T01:49:06;19.67;;;2.40;;
4174;SDS011;2101;48.290;14.382;2022-07-29T01:51:35;16.63;;;2.37;;
4174;SDS011;2101;48.290;14.382;2022-07-29T01:57:16;22.30;;;3.03;;
4174;SDS011;2101;48.290;14.382;2022-07-29T02:00:07;18.80;;;3.37;;
4174;SDS011;2101;48.290;14.382;2022-07-29T02:02:55;15.97;;;2.70;;
4174;SDS011;2101;48.290;14.382;2022-07-29T02:05:26;16.00;;;2.70;;
4174;SDS011;2101;48.290;14.382;2022-07-29T02:07:53;17.53;;;2.50;;
4174;SDS011;2101;48.290;14.382;2022-07-29T02:10:52;20.00;;;3.37;;
4174;SDS011;2101;48.290;14.382;2022-07-29T02:13:19;16.30;;;2.87;;
4174;SDS011;2101;48.290;14.382;2022-07-29T02:15:49;18.63;;;2.83;;
4174;SDS011;2101;48.290;14.382;2022-07-29T02:18:23;16.17;;;2.60;;
4174;SDS011;2101;48.290;14.382;2022-07-29T02:21:12;18.93;;;2.70;;
4174;SDS011;2101;48.290;14.382;2022-07-29T02:23:44;16.67;;;2.63;;
4174;SDS011;2101;48.290;14.382;2022-07-29T02:26:11;17.77;;;3.00;;
4174;SDS011;2101;48.290;14.382;2022-07-29T02:28:38;17.57;;;2.97;;
4174;SDS011;2101;48.290;14.382;2022-07-29T02:31:07;18.73;;;3.20;;
4174;SDS011;2101;48.290;14.382;2022-07-29T02:33:40;17.20;;;2.90;;
4174;SDS011;2101;48.290;14.382;2022-07-29T02:36:07;21.30;;;3.80;;
4174;SDS011;2101;48.290;14.382;2022-07-29T02:38:47;16.50;;;3.23;;
4174;SDS011;2101;48.290;14.382;2022-07-29T02:43:55;16.10;;;2.60;;
4174;SDS011;2101;48.290;14.382;2022-07-29T02:46:33;15.27;;;2.23;;
4174;SDS011;2101;48.290;14.382;2022-07-29T02:52:03;20.10;;;2.37;;
4174;SDS011;2101;48.290;14.382;2022-07-29T02:54:44;20.03;;;3.10;;
4174;SDS011;2101;48.290;14.382;2022-07-29T02:57:19;16.57;;;2.77;;
4174;SDS011;2101;48.290;14.382;2022-07-29T03:00:10;19.80;;;2.83;;
4174;SDS011;2101;48.290;14.382;2022-07-29T03:02:45;17.23;;;2.90;;
4174;SDS011;2101;48.290;14.382;2022-07-29T03:05:25;18.53;;;3.00;;
4174;SDS011;2101;48.290;14.382;2022-07-29T03:08:06;18.30;;;2.73;;
4174;SDS011;2101;48.290;14.382;2022-07-29T03:10:36;23.20;;;3.07;;
4174;SDS011;2101;48.290;14.382;2022-07-29T03:13:41;18.37;;;3.10;;
4174;SDS011;2101;48.290;14.382;2022-07-29T03:16:10;16.30;;;2.57;;
4174;SDS011;2101;48.290;14.382;2022-07-29T03:19:18;16.70;;;2.63;;
4174;SDS011;2101;48.290;14.382;2022-07-29T03:21:49;16.70;;;2.40;;
4174;SDS011;2101;48.290;14.382;2022-07-29T03:24:30;21.30;;;3.23;;
4174;SDS011;2101;48.290;14.382;2022-07-29T03:27:05;16.73;;;3.10;;
4174;SDS011;2101;48.290;14.382;2022-07-29T03:29:37;17.50;;;3.10;;
4174;SDS011;2101;48.290;14.382;2022-07-29T03:32:57;16.50;;;2.70;;
4174;SDS011;2101;48.290;14.382;2022-07-29T03:35:28;15.77;;;2.30;;
4174;SDS011;2101;48.290;14.382;2022-07-29T03:37:57;18.80;;;2.63;;
4174;SDS011;2101;48.290;14.382;2022-07-29T03:40:32;16.03;;;2.10;;
4174;SDS011;2101;48.290;14.382;2022-07-29T03:43:05;18.73;;;2.67;;
4174;SDS011;2101;48.290;14.382;2022-07-29T03:45:47;22.87;;;2.20;;
4174;SDS011;2101;48.290;14.382;2022-07-29T03:48:32;18.67;;;2.47;;
4174;SDS011;2101;48.290;14.382;2022-07-29T03:51:14;16.00;;;2.50;;
4174;SDS011;2101;48.290;14.382;2022-07-29T03:53:47;16.47;;;2.40;;
4174;SDS011;2101;48.290;14.382;2022-07-29T03:56:39;22.50;;;2.17;;
4174;SDS011;2101;48.290;14.382;2022-07-29T04:04:52;18.63;;;3.20;;
4174;SDS011;2101;48.290;14.382;2022-07-29T04:07:18;16.50;;;2.10;;
4174;SDS011;2101;48.290;14.382;2022-07-29T04:09:44;17.30;;;2.90;;
4174;SDS011;2101;48.290;14.382;2022-07-29T04:12:11;18.97;;;3.03;;
4174;SDS011;2101;48.290;14.382;2022-07-29T04:14:39;17.10;;;2.93;;
4174;SDS011;2101;48.290;14.382;2022-07-29T04:17:05;16.27;;;2.40;;
4174;SDS011;2101;48.290;14.382;2022-07-29T04:19:32;18.20;;;2.77;;
4174;SDS011;2101;48.290;14.382;2022-07-29T04:21:59;17.97;;;2.43;;
4174;SDS011;2101;48.290;14.382;2022-07-29T04:24:26;15.70;;;2.30;;
4174;SDS011;2101;48.290;14.382;2022-07-29T04:26:52;17.83;;;2.90;;
4174;SDS011;2101;48.290;14.382;2022-07-29T04:29:19;18.37;;;3.17;;
4174;SDS011;2101;48.290;14.382;2022-07-29T04:31:45;16.30;;;2.33;;
4174;SDS011;2101;48.290;14.382;2022-07-29T04:34:11;15.77;;;2.27;;
4174;SDS011;2101;48.290;14.382;2022-07-29T04:36:38;16.73;;;2.87;;
4174;SDS011;2101;48.290;14.382;2022-07-29T04:39:04;18.20;;;3.10;;
4174;SDS011;2101;48.290;14.382;2022-07-29T04:41:30;16.50;;;3.00;;
4174;SDS011;2101;48.290;14.382;2022-07-29T04:43:57;17.73;;;2.50;;
4174;SDS011;2101;48.290;14.382;2022-07-29T04:46:25;20.10;;;3.40;;
4174;SDS011;2101;48.290;14.382;2022-07-29T04:48:52;16.03;;;2.30;;
4174;SDS011;2101;48.290;14.382;2022-07-29T04:51:19;16.57;;;2.30;;
4174;SDS011;2101;48.290;14.382;2022-07-29T04:53:45;15.07;;;2.00;;
4174;SDS011;2101;48.290;14.382;2022-07-29T04:56:11;19.03;;;2.60;;
4174;SDS011;2101;48.290;14.382;2022-07-29T04:58:38;16.27;;;2.73;;
4174;SDS011;2101;48.290;14.382;2022-07-29T05:01:04;15.67;;;2.27;;
4174;SDS011;2101;48.290;14.382;2022-07-29T05:03:30;15.70;;;2.40;;
4174;SDS011;2101;48.290;14.382;2022-07-29T05:05:57;17.10;;;2.80;;
4174;SDS011;2101;48.290;14.382;2022-07-29T05:08:23;16.03;;;2.37;;
4174;SDS011;2101;48.290;14.382;2022-07-29T05:13:15;15.57;;;2.20;;
4174;SDS011;2101;48.290;14.382;2022-07-29T05:15:50;16.00;;;2.40;;
4174;SDS011;2101;48.290;14.382;2022-07-29T05:18:20;15.63;;;2.20;;
4174;SDS011;2101;48.290;14.382;2022-07-29T05:20:56;16.47;;;2.80;;
4174;SDS011;2101;48.290;14.382;2022-07-29T05:23:22;17.50;;;2.80;;
4174;SDS011;2101;48.290;14.382;2022-07-29T05:25:49;16.03;;;2.10;;
4174;SDS011;2101;48.290;14.382;2022-07-29T05:28:17;16.57;;;2.37;;
4174;SDS011;2101;48.290;14.382;2022-07-29T05:30:44;20.53;;;2.37;;
4174;SDS011;2101;48.290;14.382;2022-07-29T05:33:10;17.97;;;2.93;;
4174;SDS011;2101;48.290;14.382;2022-07-29T05:35:36;15.93;;;2.40;;
4174;SDS011;2101;48.290;14.382;2022-07-29T05:38:03;16.80;;;3.20;;
4174;SDS011;2101;48.290;14.382;2022-07-29T05:40:29;19.33;;;2.50;;
4174;SDS011;2101;48.290;14.382;2022-07-29T05:42:56;17.20;;;2.87;;
4174;SDS011;2101;48.290;14.382;2022-07-29T05:45:22;20.43;;;2.40;;
4174;SDS011;2101;48.290;14.382;2022-07-29T05:47:49;17.70;;;2.60;;
4174;SDS011;2101;48.290;14.382;2022-07-29T05:50:15;16.33;;;2.13;;
4174;SDS011;2101;48.290;14.382;2022-07-29T05:52:42;15.87;;;2.77;;
4174;SDS011;2101;48.290;14.382;2022-07-29T05:55:09;16.57;;;2.50;;
4174;SDS011;2101;48.290;14.382;2022-07-29T05:57:36;17.77;;;2.30;;
4174;SDS011;2101;48.290;14.382;2022-07-29T06:00:03;15.60;;;2.60;;
4174;SDS011;2101;48.290;14.382;2022-07-29T06:02:29;18.60;;;2.70;;
4174;SDS011;2101;48.290;14.382;2022-07-29T06:04:55;15.27;;;2.33;;
4174;SDS011;2101;48.290;14.382;2022-07-29T06:07:22;18.03;;;2.60;;
4174;SDS011;2101;48.290;14.382;2022-07-29T06:09:51;15.80;;;2.70;;
4174;SDS011;2101;48.290;14.382;2022-07-29T06:12:17;18.90;;;2.37;;
4174;SDS011;2101;48.290;14.382;2022-07-29T06:14:44;17.07;;;2.73;;
4174;SDS011;2101;48.290;14.382;2022-07-29T06:17:11;17.13;;;2.90;;
4174;SDS011;2101;48.290;14.382;2022-07-29T06:19:38;19.63;;;2.90;;
4174;SDS011;2101;48.290;14.382;2022-07-29T06:22:17;23.70;;;2.70;;
4174;SDS011;2101;48.290;14.382;2022-07-29T06:24:44;16.30;;;2.67;;
4174;SDS011;2101;48.290;14.382;2022-07-29T06:27:11;30.53;;;2.10;;
4174;SDS011;2101;48.290;14.382;2022-07-29T06:29:38;15.30;;;2.10;;
4174;SDS011;2101;48.290;14.382;2022-07-29T06:32:07;15.07;;;2.30;;
4174;SDS011;2101;48.290;14.382;2022-07-29T06:34:38;14.90;;;1.90;;
4174;SDS011;2101;48.290;14.382;2022-07-29T06:37:07;16.67;;;2.30;;
4174;SDS011;2101;48.290;14.382;2022-07-29T06:39:38;16.37;;;2.60;;
4174;SDS011;2101;48.290;14.382;2022-07-29T06:42:08;22.37;;;3.80;;
4174;SDS011;2101;48.290;14.382;2022-07-29T06:44:34;15.27;;;2.50;;
4174;SDS011;2101;48.290;14.382;2022-07-29T06:47:00;18.70;;;2.70;;
4174;SDS011;2101;48.290;14.382;2022-07-29T06:49:27;17.33;;;2.83;;
4174;SDS011;2101;48.290;14.382;2022-07-29T06:51:54;16.47;;;2.60;;
4174;SDS011;2101;48.290;14.382;2022-07-29T06:54:20;20.50;;;2.70;;
4174;SDS011;2101;48.290;14.382;2022-07-29T06:56:48;15.43;;;2.40;;
4174;SDS011;2101;48.290;14.382;2022-07-29T06:59:14;16.70;;;2.47;;
4174;SDS011;2101;48.290;14.382;2022-07-29T07:01:42;27.50;;;3.40;;
4174;SDS011;2101;48.290;14.382;2022-07-29T07:04:09;15.87;;;2.57;;
4174;SDS011;2101;48.290;14.382;2022-07-29T07:06:36;16.53;;;3.07;;
4174;SDS011;2101;48.290;14.382;2022-07-29T07:09:05;15.90;;;2.57;;
4174;SDS011;2101;48.290;14.382;2022-07-29T07:11:33;16.90;;;2.83;;
4174;SDS011;2101;48.290;14.382;2022-07-29T07:14:00;15.80;;;2.30;;
4174;SDS011;2101;48.290;14.382;2022-07-29T07:16:32;16.90;;;2.83;;
4174;SDS011;2101;48.290;14.382;2022-07-29T07:18:58;16.17;;;2.67;;
4174;SDS011;2101;48.290;14.382;2022-07-29T07:21:27;26.63;;;2.90;;
4174;SDS011;2101;48.290;14.382;2022-07-29T07:23:55;16.63;;;2.70;;
4174;SDS011;2101;48.290;14.382;2022-07-29T07:26:21;20.47;;;3.50;;
4174;SDS011;2101;48.290;14.382;2022-07-29T07:28:47;16.60;;;2.40;;
4174;SDS011;2101;48.290;14.382;2022-07-29T07:31:14;16.77;;;2.47;;
4174;SDS011;2101;48.290;14.382;2022-07-29T07:33:42;18.93;;;2.93;;
4174;SDS011;2101;48.290;14.382;2022-07-29T07:36:08;19.03;;;2.23;;
4174;SDS011;2101;48.290;14.382;2022-07-29T07:38:35;16.70;;;2.20;;
4174;SDS011;2101;48.290;14.382;2022-07-29T07:41:01;16.53;;;2.57;;
4174;SDS011;2101;48.290;14.382;2022-07-29T07:43:30;16.50;;;2.87;;
4174;SDS011;2101;48.290;14.382;2022-07-29T07:45:57;25.27;;;3.07;;
4174;SDS011;2101;48.290;14.382;2022-07-29T07:48:23;18.53;;;2.77;;
4174;SDS011;2101;48.290;14.382;2022-07-29T07:50:50;16.13;;;2.57;;
4174;SDS011;2101;48.290;14.382;2022-07-29T07:53:17;20.13;;;2.63;;
4174;SDS011;2101;48.290;14.382;2022-07-29T07:55:43;16.40;;;2.57;;
4174;SDS011;2101;48.290;14.382;2022-07-29T07:58:10;15.67;;;2.40;;
4174;SDS011;2101;48.290;14.382;2022-07-29T08:00:36;18.23;;;2.90;;
4174;SDS011;2101;48.290;14.382;2022-07-29T08:03:03;15.70;;;2.60;;
4174;SDS011;2101;48.290;14.382;2022-07-29T08:05:32;19.10;;;2.90;;
4174;SDS011;2101;48.290;14.382;2022-07-29T08:07:58;15.07;;;2.43;;
4174;SDS011;2101;48.290;14.382;2022-07-29T08:10:24;21.00;;;3.20;;
4174;SDS011;2101;48.290;14.382;2022-07-29T08:13:09;18.53;;;2.83;;
4174;SDS011;2101;48.290;14.382;2022-07-29T08:15:38;17.20;;;3.00;;
4174;SDS011;2101;48.290;14.382;2022-07-29T08:18:05;16.10;;;2.80;;
4174;SDS011;2101;48.290;14.382;2022-07-29T08:20:31;16.67;;;2.90;;
4174;SDS011;2101;48.290;14.382;2022-07-29T08:23:00;17.53;;;3.30;;
4174;SDS011;2101;48.290;14.382;2022-07-29T08:25:26;16.97;;;3.23;;
4174;SDS011;2101;48.290;14.382;2022-07-29T08:27:52;18.37;;;2.93;;
4174;SDS011;2101;48.290;14.382;2022-07-29T08:30:19;19.10;;;3.40;;
4174;SDS011;2101;48.290;14.382;2022-07-29T08:32:45;16.87;;;3.13;;
4174;SDS011;2101;48.290;14.382;2022-07-29T08:35:13;17.50;;;3.17;;
4174;SDS011;2101;48.290;14.382;2022-07-29T08:37:39;17.50;;;3.30;;
4174;SDS011;2101;48.290;14.382;2022-07-29T08:40:08;16.90;;;3.17;;
4174;SDS011;2101;48.290;14.382;2022-07-29T08:42:34;19.53;;;3.10;;
4174;SDS011;2101;48.290;14.382;2022-07-29T08:45:01;25.67;;;3.10;;
4174;SDS011;2101;48.290;14.382;2022-07-29T08:47:29;20.70;;;3.80;;
4174;SDS011;2101;48.290;14.382;2022-07-29T08:49:55;24.13;;;3.20;;
4174;SDS011;2101;48.290;14.382;2022-07-29T08:52:25;17.10;;;3.37;;
4174;SDS011;2101;48.290;14.382;2022-07-29T08:54:54;25.20;;;3.00;;
4174;SDS011;2101;48.290;14.382;2022-07-29T08:57:21;17.70;;;3.00;;
4174;SDS011;2101;48.290;14.382;2022-07-29T08:59:47;17.77;;;3.17;;
4174;SDS011;2101;48.290;14.382;2022-07-29T09:02:24;16.60;;;3.07;;
4174;SDS011;2101;48.290;14.382;2022-07-29T09:04:52;18.83;;;3.10;;
4174;SDS011;2101;48.290;14.382;2022-07-29T09:07:19;15.97;;;2.50;;
4174;SDS011;2101;48.290;14.382;2022-07-29T09:09:45;16.33;;;3.13;;
4174;SDS011;2101;48.290;14.382;2022-07-29T09:12:12;18.50;;;3.40;;
4174;SDS011;2101;48.290;14.382;2022-07-29T09:14:39;17.17;;;2.87;;
4174;SDS011;2101;48.290;14.382;2022-07-29T09:17:05;18.37;;;3.67;;
4174;SDS011;2101;48.290;14.382;2022-07-29T09:19:33;16.97;;;2.90;;
4174;SDS011;2101;48.290;14.382;2022-07-29T09:22:04;19.70;;;2.90;;
4174;SDS011;2101;48.290;14.382;2022-07-29T09:27:07;20.90;;;3.03;;
4174;SDS011;2101;48.290;14.382;2022-07-29T09:29:34;18.50;;;3.20;;
4174;SDS011;2101;48.290;14.382;2022-07-29T09:32:00;20.80;;;3.33;;
4174;SDS011;2101;48.290;14.382;2022-07-29T09:34:28;18.20;;;3.23;;
4174;SDS011;2101;48.290;14.382;2022-07-29T09:36:58;17.10;;;3.23;;
4174;SDS011;2101;48.290;14.382;2022-07-29T09:39:27;18.17;;;2.73;;
4174;SDS011;2101;48.290;14.382;2022-07-29T09:41:56;18.77;;;2.63;;
4174;SDS011;2101;48.290;14.382;2022-07-29T09:44:23;16.20;;;3.10;;
4174;SDS011;2101;48.290;14.382;2022-07-29T09:46:56;17.60;;;3.00;;
4174;SDS011;2101;48.290;14.382;2022-07-29T09:49:24;14.80;;;2.27;;
4174;SDS011;2101;48.290;14.382;2022-07-29T09:52:07;17.63;;;3.10;;
4174;SDS011;2101;48.290;14.382;2022-07-29T09:54:37;16.13;;;2.93;;
4174;SDS011;2101;48.290;14.382;2022-07-29T09:57:07;18.47;;;3.40;;
4174;SDS011;2101;48.290;14.382;2022-07-29T09:59:38;16.23;;;3.10;;
4174;SDS011;2101;48.290;14.382;2022-07-29T10:02:11;17.17;;;3.27;;
4174;SDS011;2101;48.290;14.382;2022-07-29T10:04:41;19.83;;;3.53;;
4174;SDS011;2101;48.290;14.382;2022-07-29T10:07:08;15.57;;;3.00;;
4174;SDS011;2101;48.290;14.382;2022-07-29T10:09:36;18.57;;;3.40;;
4174;SDS011;2101;48.290;14.382;2022-07-29T10:12:09;18.07;;;3.27;;
4174;SDS011;2101;48.290;14.382;2022-07-29T10:14:36;17.13;;;3.70;;
4174;SDS011;2101;48.290;14.382;2022-07-29T10:17:05;16.50;;;3.13;;
4174;SDS011;2101;48.290;14.382;2022-07-29T10:19:33;24.37;;;3.80;;
4174;SDS011;2101;48.290;14.382;2022-07-29T10:22:05;17.90;;;4.03;;
4174;SDS011;2101;48.290;14.382;2022-07-29T10:24:35;19.73;;;3.50;;
4174;SDS011;2101;48.290;14.382;2022-07-29T10:27:03;18.27;;;3.50;;
4174;SDS011;2101;48.290;14.382;2022-07-29T10:29:32;16.77;;;3.50;;
4174;SDS011;2101;48.290;14.382;2022-07-29T10:37:33;15.87;;;3.60;;
4174;SDS011;2101;48.290;14.382;2022-07-29T10:40:07;18.87;;;3.20;;
4174;SDS011;2101;48.290;14.382;2022-07-29T10:42:56;20.07;;;2.93;;
4174;SDS011;2101;48.290;14.382;2022-07-29T10:45:28;19.87;;;3.03;;
4174;SDS011;2101;48.290;14.382;2022-07-29T10:48:04;15.80;;;2.80;;
4174;SDS011;2101;48.290;14.382;2022-07-29T10:53:47;20.27;;;3.73;;
4174;SDS011;2101;48.290;14.382;2022-07-29T10:56:28;19.73;;;4.03;;
4174;SDS011;2101;48.290;14.382;2022-07-29T11:01:47;17.47;;;2.83;;
4174;SDS011;2101;48.290;14.382;2022-07-29T11:07:09;17.27;;;3.73;;
4174;SDS011;2101;48.290;14.382;2022-07-29T11:09:41;17.50;;;3.50;;
4174;SDS011;2101;48.290;14.382;2022-07-29T11:15:27;14.83;;;2.67;;
4174;SDS011;2101;48.290;14.382;2022-07-29T11:23:26;18.40;;;2.83;;
4174;SDS011;2101;48.290;14.382;2022-07-29T11:28:41;16.70;;;3.20;;
4174;SDS011;2101;48.290;14.382;2022-07-29T11:31:31;16.43;;;3.00;;
4174;SDS011;2101;48.290;14.382;2022-07-29T11:34:32;17.33;;;3.80;;
4174;SDS011;2101;48.290;14.382;2022-07-29T11:39:44;16.13;;;2.73;;
4174;SDS011;2101;48.290;14.382;2022-07-29T11:44:53;14.50;;;2.20;;
4174;SDS011;2101;48.290;14.382;2022-07-29T11:50:33;22.43;;;2.47;;
4174;SDS011;2101;48.290;14.382;2022-07-29T11:53:02;15.30;;;2.90;;
4174;SDS011;2101;48.290;14.382;2022-07-29T11:55:31;17.37;;;3.67;;
4174;SDS011;2101;48.290;14.382;2022-07-29T11:58:01;16.73;;;2.73;;
4174;SDS011;2101;48.290;14.382;2022-07-29T12:02:54;17.80;;;3.10;;
4174;SDS011;2101;48.290;14.382;2022-07-29T12:05:40;14.53;;;2.50;;
4174;SDS011;2101;48.290;14.382;2022-07-29T12:08:06;19.90;;;2.80;;
4174;SDS011;2101;48.290;14.382;2022-07-29T12:10:33;15.47;;;2.60;;
4174;SDS011;2101;48.290;14.382;2022-07-29T12:12:59;17.10;;;3.30;;
4174;SDS011;2101;48.290;14.382;2022-07-29T12:15:26;16.03;;;2.50;;
4174;SDS011;2101;48.290;14.382;2022-07-29T12:17:58;19.37;;;3.10;;
4174;SDS011;2101;48.290;14.382;2022-07-29T12:20:27;15.50;;;2.10;;
4174;SDS011;2101;48.290;14.382;2022-07-29T12:22:54;15.37;;;2.00;;
4174;SDS011;2101;48.290;14.382;2022-07-29T12:25:23;14.90;;;2.37;;
4174;SDS011;2101;48.290;14.382;2022-07-29T12:27:59;17.30;;;2.67;;
4174;SDS011;2101;48.290;14.382;2022-07-29T12:33:10;15.60;;;2.30;;
4174;SDS011;2101;48.290;14.382;2022-07-29T12:35:51;14.27;;;2.13;;
4174;SDS011;2101;48.290;14.382;2022-07-29T12:38:19;14.77;;;2.37;;
4174;SDS011;2101;48.290;14.382;2022-07-29T12:40:47;17.00;;;2.30;;
4174;SDS011;2101;48.290;14.382;2022-07-29T12:43:17;16.40;;;2.43;;
4174;SDS011;2101;48.290;14.382;2022-07-29T12:45:46;17.80;;;2.27;;
4174;SDS011;2101;48.290;14.382;2022-07-29T12:48:13;14.37;;;2.10;;
4174;SDS011;2101;48.290;14.382;2022-07-29T12:50:56;14.87;;;2.40;;
4174;SDS011;2101;48.290;14.382;2022-07-29T12:53:25;13.60;;;1.93;;
4174;SDS011;2101;48.290;14.382;2022-07-29T12:55:58;14.03;;;2.23;;
4174;SDS011;2101;48.290;14.382;2022-07-29T12:58:37;17.13;;;2.73;;
4174;SDS011;2101;48.290;14.382;2022-07-29T13:01:06;16.50;;;2.60;;
4174;SDS011;2101;48.290;14.382;2022-07-29T13:06:32;15.00;;;2.43;;
4174;SDS011;2101;48.290;14.382;2022-07-29T13:09:03;18.50;;;2.23;;
4174;SDS011;2101;48.290;14.382;2022-07-29T13:11:31;15.97;;;2.23;;
4174;SDS011;2101;48.290;14.382;2022-07-29T13:14:03;13.70;;;1.90;;
4174;SDS011;2101;48.290;14.382;2022-07-29T13:16:36;13.60;;;1.87;;
4174;SDS011;2101;48.290;14.382;2022-07-29T13:19:10;14.50;;;2.30;;
4174;SDS011;2101;48.290;14.382;2022-07-29T13:21:41;14.67;;;1.97;;
4174;SDS011;2101;48.290;14.382;2022-07-29T13:24:07;14.20;;;1.93;;
4174;SDS011;2101;48.290;14.382;2022-07-29T13:26:39;14.50;;;1.57;;
4174;SDS011;2101;48.290;14.382;2022-07-29T13:29:14;14.07;;;1.80;;
4174;SDS011;2101;48.290;14.382;2022-07-29T13:32:00;17.10;;;2.30;;
4174;SDS011;2101;48.290;14.382;2022-07-29T13:34:29;22.23;;;2.10;;
4174;SDS011;2101;48.290;14.382;2022-07-29T13:36:59;16.40;;;2.30;;
4174;SDS011;2101;48.290;14.382;2022-07-29T13:39:31;18.63;;;2.10;;
4174;SDS011;2101;48.290;14.382;2022-07-29T13:42:12;14.32;;;2.00;;
4174;SDS011;2101;48.290;14.382;2022-07-29T13:44:39;14.88;;;2.10;;
4174;SDS011;2101;48.290;14.382;2022-07-29T13:47:10;13.57;;;2.00;;
4174;SDS011;2101;48.290;14.382;2022-07-29T13:49:41;13.60;;;1.90;;
4174;SDS011;2101;48.290;14.382;2022-07-29T13:52:08;14.65;;;1.98;;
4174;SDS011;2101;48.290;14.382;2022-07-29T13:54:35;14.32;;;1.92;;
4174;SDS011;2101;48.290;14.382;2022-07-29T13:57:04;16.38;;;2.17;;
4174;SDS011;2101;48.290;14.382;2022-07-29T13:59:41;13.90;;;1.77;;
4174;SDS011;2101;48.290;14.382;2022-07-29T14:02:15;12.95;;;1.40;;
4174;SDS011;2101;48.290;14.382;2022-07-29T14:07:29;12.75;;;1.48;;
4174;SDS011;2101;48.290;14.382;2022-07-29T14:09:55;12.60;;;1.35;;
4174;SDS011;2101;48.290;14.382;2022-07-29T14:12:22;12.77;;;1.40;;
4174;SDS011;2101;48.290;14.382;2022-07-29T14:14:48;15.25;;;1.98;;
4174;SDS011;2101;48.290;14.382;2022-07-29T14:17:15;12.45;;;1.30;;
4174;SDS011;2101;48.290;14.382;2022-07-29T14:19:41;13.70;;;1.30;;
4174;SDS011;2101;48.290;14.382;2022-07-29T14:22:08;13.50;;;1.40;;
4174;SDS011;2101;48.290;14.382;2022-07-29T14:24:34;14.20;;;1.38;;
4174;SDS011;2101;48.290;14.382;2022-07-29T14:27:00;13.27;;;1.77;;
4174;SDS011;2101;48.290;14.382;2022-07-29T14:29:27;14.82;;;1.30;;
4174;SDS011;2101;48.290;14.382;2022-07-29T14:31:53;14.43;;;1.52;;
4174;SDS011;2101;48.290;14.382;2022-07-29T14:34:19;15.82;;;1.65;;
4174;SDS011;2101;48.290;14.382;2022-07-29T14:36:45;12.88;;;1.35;;
4174;SDS011;2101;48.290;14.382;2022-07-29T14:39:11;13.98;;;1.65;;
4174;SDS011;2101;48.290;14.382;2022-07-29T14:41:37;13.30;;;1.10;;
4174;SDS011;2101;48.290;14.382;2022-07-29T14:44:04;12.52;;;1.27;;
4174;SDS011;2101;48.290;14.382;2022-07-29T14:46:30;13.23;;;1.45;;
4174;SDS011;2101;48.290;14.382;2022-07-29T14:48:56;12.98;;;1.52;;
4174;SDS011;2101;48.290;14.382;2022-07-29T14:51:22;12.90;;;1.48;;
4174;SDS011;2101;48.290;14.382;2022-07-29T14:53:48;12.77;;;1.30;;
4174;SDS011;2101;48.290;14.382;2022-07-29T14:56:15;13.05;;;1.38;;
4174;SDS011;2101;48.290;14.382;2022-07-29T14:58:41;13.13;;;1.50;;
4174;SDS011;2101;48.290;14.382;2022-07-29T15:01:07;14.05;;;1.90;;
4174;SDS011;2101;48.290;14.382;2022-07-29T15:03:33;17.15;;;1.58;;
4174;SDS011;2101;48.290;14.382;2022-07-29T15:05:59;17.00;;;1.70;;
4174;SDS011;2101;48.290;14.382;2022-07-29T15:08:25;13.25;;;1.58;;
4174;SDS011;2101;48.290;14.382;2022-07-29T15:10:54;15.05;;;1.45;;
4174;SDS011;2101;48.290;14.382;2022-07-29T15:13:22;12.73;;;1.50;;
4174;SDS011;2101;48.290;14.382;2022-07-29T15:15:48;15.60;;;1.80;;
4174;SDS011;2101;48.290;14.382;2022-07-29T15:18:15;14.02;;;1.52;;
4174;SDS011;2101;48.290;14.382;2022-07-29T15:20:41;14.00;;;1.37;;
4174;SDS011;2101;48.290;14.382;2022-07-29T15:23:07;13.73;;;1.30;;
4174;SDS011;2101;48.290;14.382;2022-07-29T15:25:34;12.57;;;1.10;;
4174;SDS011;2101;48.290;14.382;2022-07-29T15:28:01;13.20;;;1.50;;
4174;SDS011;2101;48.290;14.382;2022-07-29T15:30:29;16.20;;;1.67;;
4174;SDS011;2101;48.290;14.382;2022-07-29T15:32:55;13.00;;;1.40;;
4174;SDS011;2101;48.290;14.382;2022-07-29T15:35:22;12.57;;;1.30;;
4174;SDS011;2101;48.290;14.382;2022-07-29T15:37:48;13.13;;;1.60;;
4174;SDS011;2101;48.290;14.382;2022-07-29T15:40:14;13.38;;;1.58;;
4174;SDS011;2101;48.290;14.382;2022-07-29T15:42:40;12.90;;;1.30;;
4174;SDS011;2101;48.290;14.382;2022-07-29T15:45:06;13.13;;;1.27;;
4174;SDS011;2101;48.290;14.382;2022-07-29T15:47:34;12.90;;;1.20;;
4174;SDS011;2101;48.290;14.382;2022-07-29T15:50:03;13.30;;;1.30;;
4174;SDS011;2101;48.290;14.382;2022-07-29T15:52:31;12.50;;;1.20;;
4174;SDS011;2101;48.290;14.382;2022-07-29T15:54:57;12.53;;;1.20;;
4174;SDS011;2101;48.290;14.382;2022-07-29T15:57:24;13.10;;;1.23;;
4174;SDS011;2101;48.290;14.382;2022-07-29T15:59:50;12.70;;;1.03;;
4174;SDS011;2101;48.290;14.382;2022-07-29T16:02:16;12.93;;;1.43;;
4174;SDS011;2101;48.290;14.382;2022-07-29T16:04:42;12.88;;;1.33;;
4174;SDS011;2101;48.290;14.382;2022-07-29T16:07:08;14.73;;;1.80;;
4174;SDS011;2101;48.290;14.382;2022-07-29T16:09:34;12.80;;;1.27;;
4174;SDS011;2101;48.290;14.382;2022-07-29T16:12:01;14.25;;;1.35;;
4174;SDS011;2101;48.290;14.382;2022-07-29T16:14:27;13.67;;;1.50;;
4174;SDS011;2101;48.290;14.382;2022-07-29T16:16:53;13.13;;;1.47;;